sensor_id;sensor_type;location;lat;lon;timestamp;P1;durP1;ratioP1;P2;durP2;ratioP2
5221;SDS011;2630;52.036;8.514;2022-08-06T00:00:41;73.00;;;5.43;;
5221;SDS011;2630;52.036;8.514;2022-08-06T00:03:07;73.47;;;5.70;;
5221;SDS011;2630;52.036;8.514;2022-08-06T00:05:33;74.97;;;5.90;;
5221;SDS011;2630;52.036;8.514;2022-08-06T00:07:59;73.13;;;5.77;;
5221;SDS011;2630;52.036;8.514;2022-08-06T00:10:25;77.35;;;5.95;;
5221;SDS011;2630;52.036;8.514;2022-08-06T00:12:51;73.10;;;5.57;;
5221;SDS011;2630;52.036;8.514;2022-08-06T00:15:17;73.03;;;5.95;;
5221;SDS011;2630;52.036;8.514;2022-08-06T00:17:44;72.55;;;6.05;;
5221;SDS011;2630;52.036;8.514;2022-08-06T00:20:14;72.72;;;5.95;;
5221;SDS011;2630;52.036;8.514;2022-08-06T00:22:41;73.10;;;5.77;;
5221;SDS011;2630;52.036;8.514;2022-08-06T00:25:07;72.95;;;6.18;;
5221;SDS011;2630;52.036;8.514;2022-08-06T00:27:34;72.55;;;5.75;;
5221;SDS011;2630;52.036;8.514;2022-08-06T00:30:00;73.30;;;5.97;;
5221;SDS011;2630;52.036;8.514;2022-08-06T00:32:26;72.77;;;5.33;;
5221;SDS011;2630;52.036;8.514;2022-08-06T00:34:51;72.97;;;5.70;;
5221;SDS011;2630;52.036;8.514;2022-08-06T00:37:17;72.37;;;5.83;;
5221;SDS011;2630;52.036;8.514;2022-08-06T00:39:43;73.05;;;6.03;;
5221;SDS011;2630;52.036;8.514;2022-08-06T00:42:09;72.20;;;5.90;;
5221;SDS011;2630;52.036;8.514;2022-08-06T00:44:35;73.10;;;5.80;;
5221;SDS011;2630;52.036;8.514;2022-08-06T00:47:00;73.30;;;5.90;;
5221;SDS011;2630;52.036;8.514;2022-08-06T00:49:27;73.07;;;5.57;;
5221;SDS011;2630;52.036;8.514;2022-08-06T00:51:52;75.70;;;6.23;;
5221;SDS011;2630;52.036;8.514;2022-08-06T00:54:19;72.77;;;5.43;;
5221;SDS011;2630;52.036;8.514;2022-08-06T00:56:45;72.93;;;5.57;;
5221;SDS011;2630;52.036;8.514;2022-08-06T00:59:11;72.27;;;5.80;;
5221;SDS011;2630;52.036;8.514;2022-08-06T01:01:37;72.57;;;5.20;;
5221;SDS011;2630;52.036;8.514;2022-08-06T01:04:02;73.10;;;5.40;;
5221;SDS011;2630;52.036;8.514;2022-08-06T01:06:28;74.18;;;5.63;;
5221;SDS011;2630;52.036;8.514;2022-08-06T01:08:54;73.50;;;5.87;;
5221;SDS011;2630;52.036;8.514;2022-08-06T01:11:20;73.10;;;5.30;;
5221;SDS011;2630;52.036;8.514;2022-08-06T01:13:45;72.93;;;6.00;;
5221;SDS011;2630;52.036;8.514;2022-08-06T01:16:13;73.10;;;5.83;;
5221;SDS011;2630;52.036;8.514;2022-08-06T01:18:50;73.20;;;5.63;;
5221;SDS011;2630;52.036;8.514;2022-08-06T01:29:55;72.72;;;5.70;;
5221;SDS011;2630;52.036;8.514;2022-08-06T01:32:27;73.22;;;5.50;;
5221;SDS011;2630;52.036;8.514;2022-08-06T01:35:02;73.13;;;5.80;;
5221;SDS011;2630;52.036;8.514;2022-08-06T01:37:44;73.43;;;5.70;;
5221;SDS011;2630;52.036;8.514;2022-08-06T01:40:15;73.05;;;5.80;;
5221;SDS011;2630;52.036;8.514;2022-08-06T01:42:44;73.03;;;5.40;;
5221;SDS011;2630;52.036;8.514;2022-08-06T01:45:12;73.15;;;5.30;;
5221;SDS011;2630;52.036;8.514;2022-08-06T01:47:40;72.97;;;6.17;;
5221;SDS011;2630;52.036;8.514;2022-08-06T01:50:08;72.75;;;5.55;;
5221;SDS011;2630;52.036;8.514;2022-08-06T01:52:36;73.00;;;5.60;;
5221;SDS011;2630;52.036;8.514;2022-08-06T01:55:08;73.15;;;5.50;;
5221;SDS011;2630;52.036;8.514;2022-08-06T01:57:36;73.05;;;5.03;;
5221;SDS011;2630;52.036;8.514;2022-08-06T02:00:05;73.13;;;6.13;;
5221;SDS011;2630;52.036;8.514;2022-08-06T02:02:31;73.22;;;5.95;;
5221;SDS011;2630;52.036;8.514;2022-08-06T02:05:00;73.32;;;5.93;;
5221;SDS011;2630;52.036;8.514;2022-08-06T02:07:27;73.25;;;5.72;;
5221;SDS011;2630;52.036;8.514;2022-08-06T02:09:57;73.10;;;5.87;;
5221;SDS011;2630;52.036;8.514;2022-08-06T02:12:25;72.87;;;5.40;;
5221;SDS011;2630;52.036;8.514;2022-08-06T02:14:54;73.32;;;5.97;;
5221;SDS011;2630;52.036;8.514;2022-08-06T02:17:22;73.17;;;5.97;;
5221;SDS011;2630;52.036;8.514;2022-08-06T02:19:52;73.00;;;5.77;;
5221;SDS011;2630;52.036;8.514;2022-08-06T02:22:20;72.63;;;5.97;;
5221;SDS011;2630;52.036;8.514;2022-08-06T02:24:47;73.03;;;5.55;;
5221;SDS011;2630;52.036;8.514;2022-08-06T02:27:14;73.40;;;5.60;;
5221;SDS011;2630;52.036;8.514;2022-08-06T02:29:42;77.18;;;6.25;;
5221;SDS011;2630;52.036;8.514;2022-08-06T02:32:09;72.63;;;5.25;;
5221;SDS011;2630;52.036;8.514;2022-08-06T02:34:36;73.60;;;5.97;;
5221;SDS011;2630;52.036;8.514;2022-08-06T02:39:29;72.30;;;5.37;;
5221;SDS011;2630;52.036;8.514;2022-08-06T02:42:03;73.35;;;5.57;;
5221;SDS011;2630;52.036;8.514;2022-08-06T02:49:59;73.13;;;5.70;;
5221;SDS011;2630;52.036;8.514;2022-08-06T02:55:00;73.20;;;5.43;;
5221;SDS011;2630;52.036;8.514;2022-08-06T02:57:33;74.55;;;6.15;;
5221;SDS011;2630;52.036;8.514;2022-08-06T03:00:05;73.72;;;6.10;;
5221;SDS011;2630;52.036;8.514;2022-08-06T03:02:33;73.57;;;5.63;;
5221;SDS011;2630;52.036;8.514;2022-08-06T03:05:01;73.32;;;5.40;;
5221;SDS011;2630;52.036;8.514;2022-08-06T03:07:29;73.03;;;5.75;;
5221;SDS011;2630;52.036;8.514;2022-08-06T03:09:58;73.15;;;5.95;;
5221;SDS011;2630;52.036;8.514;2022-08-06T03:12:24;73.13;;;5.75;;
5221;SDS011;2630;52.036;8.514;2022-08-06T03:14:50;72.70;;;5.83;;
5221;SDS011;2630;52.036;8.514;2022-08-06T03:17:18;72.75;;;5.25;;
5221;SDS011;2630;52.036;8.514;2022-08-06T03:19:45;73.13;;;5.47;;
5221;SDS011;2630;52.036;8.514;2022-08-06T03:22:13;72.57;;;5.78;;
5221;SDS011;2630;52.036;8.514;2022-08-06T03:24:41;73.03;;;5.75;;
5221;SDS011;2630;52.036;8.514;2022-08-06T03:27:08;72.93;;;5.93;;
5221;SDS011;2630;52.036;8.514;2022-08-06T03:29:35;72.93;;;5.95;;
5221;SDS011;2630;52.036;8.514;2022-08-06T03:32:04;73.32;;;5.72;;
5221;SDS011;2630;52.036;8.514;2022-08-06T03:34:31;73.30;;;5.75;;
5221;SDS011;2630;52.036;8.514;2022-08-06T03:36:59;73.03;;;5.68;;
5221;SDS011;2630;52.036;8.514;2022-08-06T03:39:26;72.80;;;5.63;;
5221;SDS011;2630;52.036;8.514;2022-08-06T03:41:53;73.35;;;5.72;;
5221;SDS011;2630;52.036;8.514;2022-08-06T03:44:20;72.82;;;5.35;;
5221;SDS011;2630;52.036;8.514;2022-08-06T03:46:48;71.97;;;5.45;;
5221;SDS011;2630;52.036;8.514;2022-08-06T03:49:21;72.95;;;5.55;;
5221;SDS011;2630;52.036;8.514;2022-08-06T03:51:55;72.82;;;5.38;;
5221;SDS011;2630;52.036;8.514;2022-08-06T03:54:27;72.65;;;5.32;;
5221;SDS011;2630;52.036;8.514;2022-08-06T03:56:57;73.25;;;5.78;;
5221;SDS011;2630;52.036;8.514;2022-08-06T03:59:33;72.75;;;5.22;;
5221;SDS011;2630;52.036;8.514;2022-08-06T04:02:01;73.43;;;5.78;;
5221;SDS011;2630;52.036;8.514;2022-08-06T04:04:29;72.93;;;5.85;;
5221;SDS011;2630;52.036;8.514;2022-08-06T04:06:58;72.32;;;5.50;;
5221;SDS011;2630;52.036;8.514;2022-08-06T04:09:25;72.75;;;5.30;;
5221;SDS011;2630;52.036;8.514;2022-08-06T04:11:52;72.82;;;5.05;;
5221;SDS011;2630;52.036;8.514;2022-08-06T04:14:19;73.15;;;5.90;;
5221;SDS011;2630;52.036;8.514;2022-08-06T04:16:45;72.82;;;5.15;;
5221;SDS011;2630;52.036;8.514;2022-08-06T04:19:13;72.93;;;5.68;;
5221;SDS011;2630;52.036;8.514;2022-08-06T04:21:43;72.78;;;5.68;;
5221;SDS011;2630;52.036;8.514;2022-08-06T04:24:10;72.90;;;5.70;;
5221;SDS011;2630;52.036;8.514;2022-08-06T04:26:36;78.50;;;6.90;;
5221;SDS011;2630;52.036;8.514;2022-08-06T04:29:03;72.63;;;5.63;;
5221;SDS011;2630;52.036;8.514;2022-08-06T04:31:31;73.03;;;5.28;;
5221;SDS011;2630;52.036;8.514;2022-08-06T04:33:59;72.80;;;5.57;;
5221;SDS011;2630;52.036;8.514;2022-08-06T04:36:26;73.05;;;5.35;;
5221;SDS011;2630;52.036;8.514;2022-08-06T04:38:53;73.30;;;6.00;;
5221;SDS011;2630;52.036;8.514;2022-08-06T04:41:19;72.95;;;5.57;;
5221;SDS011;2630;52.036;8.514;2022-08-06T04:43:46;73.45;;;5.70;;
5221;SDS011;2630;52.036;8.514;2022-08-06T04:46:14;73.57;;;5.57;;
5221;SDS011;2630;52.036;8.514;2022-08-06T04:48:40;73.13;;;5.70;;
5221;SDS011;2630;52.036;8.514;2022-08-06T04:51:06;72.07;;;5.73;;
5221;SDS011;2630;52.036;8.514;2022-08-06T04:53:36;73.13;;;5.75;;
5221;SDS011;2630;52.036;8.514;2022-08-06T04:56:03;73.18;;;5.18;;
5221;SDS011;2630;52.036;8.514;2022-08-06T04:58:30;73.57;;;5.78;;
5221;SDS011;2630;52.036;8.514;2022-08-06T05:00:56;72.70;;;5.30;;
5221;SDS011;2630;52.036;8.514;2022-08-06T05:03:22;72.20;;;5.57;;
5221;SDS011;2630;52.036;8.514;2022-08-06T05:05:54;72.77;;;5.47;;
5221;SDS011;2630;52.036;8.514;2022-08-06T05:08:43;73.35;;;5.68;;
5221;SDS011;2630;52.036;8.514;2022-08-06T05:11:17;73.57;;;5.60;;
5221;SDS011;2630;52.036;8.514;2022-08-06T05:14:00;72.90;;;5.50;;
5221;SDS011;2630;52.036;8.514;2022-08-06T05:16:31;74.30;;;6.50;;
5221;SDS011;2630;52.036;8.514;2022-08-06T05:19:00;73.00;;;5.47;;
5221;SDS011;2630;52.036;8.514;2022-08-06T05:21:30;72.67;;;5.50;;
5221;SDS011;2630;52.036;8.514;2022-08-06T05:24:00;73.50;;;5.70;;
5221;SDS011;2630;52.036;8.514;2022-08-06T05:26:27;80.43;;;7.30;;
5221;SDS011;2630;52.036;8.514;2022-08-06T05:28:53;72.90;;;6.10;;
5221;SDS011;2630;52.036;8.514;2022-08-06T05:31:55;73.33;;;5.30;;
5221;SDS011;2630;52.036;8.514;2022-08-06T05:34:11;73.20;;;5.70;;
5221;SDS011;2630;52.036;8.514;2022-08-06T05:36:37;77.17;;;6.70;;
5221;SDS011;2630;52.036;8.514;2022-08-06T05:39:03;73.23;;;5.97;;
5221;SDS011;2630;52.036;8.514;2022-08-06T05:41:29;73.30;;;6.03;;
5221;SDS011;2630;52.036;8.514;2022-08-06T05:43:54;72.97;;;5.37;;
5221;SDS011;2630;52.036;8.514;2022-08-06T05:46:22;79.47;;;5.90;;
5221;SDS011;2630;52.036;8.514;2022-08-06T05:48:53;73.30;;;6.10;;
5221;SDS011;2630;52.036;8.514;2022-08-06T05:51:27;72.80;;;5.30;;
5221;SDS011;2630;52.036;8.514;2022-08-06T05:53:57;73.40;;;6.23;;
5221;SDS011;2630;52.036;8.514;2022-08-06T05:56:28;73.30;;;5.60;;
5221;SDS011;2630;52.036;8.514;2022-08-06T05:58:59;72.77;;;5.43;;
5221;SDS011;2630;52.036;8.514;2022-08-06T06:01:27;72.67;;;5.43;;
5221;SDS011;2630;52.036;8.514;2022-08-06T06:03:55;72.80;;;5.73;;
5221;SDS011;2630;52.036;8.514;2022-08-06T06:06:22;73.53;;;5.80;;
5221;SDS011;2630;52.036;8.514;2022-08-06T06:08:48;72.87;;;5.73;;
5221;SDS011;2630;52.036;8.514;2022-08-06T06:11:14;72.90;;;5.20;;
5221;SDS011;2630;52.036;8.514;2022-08-06T06:13:42;76.70;;;6.07;;
5221;SDS011;2630;52.036;8.514;2022-08-06T06:16:13;72.57;;;5.47;;
5221;SDS011;2630;52.036;8.514;2022-08-06T06:21:49;73.37;;;6.07;;
5221;SDS011;2630;52.036;8.514;2022-08-06T06:24:25;72.87;;;5.93;;
5221;SDS011;2630;52.036;8.514;2022-08-06T06:37:23;73.07;;;5.70;;
5221;SDS011;2630;52.036;8.514;2022-08-06T06:45:30;74.77;;;6.10;;
5221;SDS011;2630;52.036;8.514;2022-08-06T06:48:14;72.87;;;5.87;;
5221;SDS011;2630;52.036;8.514;2022-08-06T06:50:45;72.93;;;5.53;;
5221;SDS011;2630;52.036;8.514;2022-08-06T06:53:14;72.77;;;5.63;;
5221;SDS011;2630;52.036;8.514;2022-08-06T06:55:43;73.77;;;5.67;;
5221;SDS011;2630;52.036;8.514;2022-08-06T07:01:03;72.60;;;5.47;;
5221;SDS011;2630;52.036;8.514;2022-08-06T07:03:31;76.07;;;6.27;;
5221;SDS011;2630;52.036;8.514;2022-08-06T07:05:59;72.80;;;5.77;;
5221;SDS011;2630;52.036;8.514;2022-08-06T07:08:26;76.77;;;6.07;;
5221;SDS011;2630;52.036;8.514;2022-08-06T07:10:53;72.67;;;5.33;;
5221;SDS011;2630;52.036;8.514;2022-08-06T07:13:20;72.90;;;5.60;;
5221;SDS011;2630;52.036;8.514;2022-08-06T07:15:48;72.87;;;5.37;;
5221;SDS011;2630;52.036;8.514;2022-08-06T07:18:15;73.37;;;5.90;;
5221;SDS011;2630;52.036;8.514;2022-08-06T07:20:42;74.07;;;5.53;;
5221;SDS011;2630;52.036;8.514;2022-08-06T07:23:09;72.70;;;5.17;;
5221;SDS011;2630;52.036;8.514;2022-08-06T07:25:36;73.10;;;5.33;;
5221;SDS011;2630;52.036;8.514;2022-08-06T07:28:03;75.97;;;5.90;;
5221;SDS011;2630;52.036;8.514;2022-08-06T07:30:29;72.80;;;5.50;;
5221;SDS011;2630;52.036;8.514;2022-08-06T07:32:57;76.00;;;5.43;;
5221;SDS011;2630;52.036;8.514;2022-08-06T07:35:24;74.67;;;6.00;;
5221;SDS011;2630;52.036;8.514;2022-08-06T07:37:54;72.87;;;5.80;;
5221;SDS011;2630;52.036;8.514;2022-08-06T07:40:24;72.97;;;6.00;;
5221;SDS011;2630;52.036;8.514;2022-08-06T07:42:54;72.80;;;5.53;;
5221;SDS011;2630;52.036;8.514;2022-08-06T07:45:26;74.20;;;5.57;;
5221;SDS011;2630;52.036;8.514;2022-08-06T07:47:54;73.67;;;5.90;;
5221;SDS011;2630;52.036;8.514;2022-08-06T07:50:22;77.43;;;6.07;;
5221;SDS011;2630;52.036;8.514;2022-08-06T07:52:49;72.47;;;5.00;;
5221;SDS011;2630;52.036;8.514;2022-08-06T07:55:17;75.50;;;6.07;;
5221;SDS011;2630;52.036;8.514;2022-08-06T07:57:46;73.00;;;5.47;;
5221;SDS011;2630;52.036;8.514;2022-08-06T08:00:12;73.60;;;6.17;;
5221;SDS011;2630;52.036;8.514;2022-08-06T08:02:39;73.17;;;5.47;;
5221;SDS011;2630;52.036;8.514;2022-08-06T08:05:05;73.10;;;6.10;;
5221;SDS011;2630;52.036;8.514;2022-08-06T08:07:50;74.33;;;5.57;;
5221;SDS011;2630;52.036;8.514;2022-08-06T08:10:17;74.90;;;5.80;;
5221;SDS011;2630;52.036;8.514;2022-08-06T08:12:44;76.43;;;5.90;;
5221;SDS011;2630;52.036;8.514;2022-08-06T08:15:10;74.03;;;5.73;;
5221;SDS011;2630;52.036;8.514;2022-08-06T08:17:36;73.33;;;5.90;;
5221;SDS011;2630;52.036;8.514;2022-08-06T08:20:02;73.10;;;5.90;;
5221;SDS011;2630;52.036;8.514;2022-08-06T08:22:32;76.17;;;6.13;;
5221;SDS011;2630;52.036;8.514;2022-08-06T08:24:59;78.80;;;6.30;;
5221;SDS011;2630;52.036;8.514;2022-08-06T08:27:25;72.80;;;5.87;;
5221;SDS011;2630;52.036;8.514;2022-08-06T08:29:50;72.87;;;6.10;;
5221;SDS011;2630;52.036;8.514;2022-08-06T08:32:17;73.80;;;5.57;;
5221;SDS011;2630;52.036;8.514;2022-08-06T08:34:43;73.10;;;5.20;;
5221;SDS011;2630;52.036;8.514;2022-08-06T08:37:08;72.57;;;5.13;;
5221;SDS011;2630;52.036;8.514;2022-08-06T08:39:34;73.00;;;5.17;;
5221;SDS011;2630;52.036;8.514;2022-08-06T08:42:04;78.73;;;6.20;;
5221;SDS011;2630;52.036;8.514;2022-08-06T08:44:35;72.70;;;5.43;;
5221;SDS011;2630;52.036;8.514;2022-08-06T08:47:03;72.40;;;5.33;;
5221;SDS011;2630;52.036;8.514;2022-08-06T08:49:34;73.67;;;5.83;;
5221;SDS011;2630;52.036;8.514;2022-08-06T08:52:00;73.33;;;5.30;;
5221;SDS011;2630;52.036;8.514;2022-08-06T08:54:27;73.37;;;5.83;;
5221;SDS011;2630;52.036;8.514;2022-08-06T08:56:54;73.60;;;5.80;;
5221;SDS011;2630;52.036;8.514;2022-08-06T08:59:20;73.70;;;5.63;;
5221;SDS011;2630;52.036;8.514;2022-08-06T09:01:47;72.90;;;5.60;;
5221;SDS011;2630;52.036;8.514;2022-08-06T09:04:13;77.90;;;6.37;;
5221;SDS011;2630;52.036;8.514;2022-08-06T09:06:39;79.47;;;7.20;;
5221;SDS011;2630;52.036;8.514;2022-08-06T09:09:05;74.80;;;5.50;;
5221;SDS011;2630;52.036;8.514;2022-08-06T09:11:32;73.77;;;6.17;;
5221;SDS011;2630;52.036;8.514;2022-08-06T09:14:02;73.10;;;6.17;;
5221;SDS011;2630;52.036;8.514;2022-08-06T09:16:30;75.30;;;8.10;;
5221;SDS011;2630;52.036;8.514;2022-08-06T09:18:57;73.80;;;7.40;;
5221;SDS011;2630;52.036;8.514;2022-08-06T09:21:23;73.97;;;8.70;;
5221;SDS011;2630;52.036;8.514;2022-08-06T09:23:49;75.17;;;7.00;;
5221;SDS011;2630;52.036;8.514;2022-08-06T09:26:15;72.50;;;6.70;;
5221;SDS011;2630;52.036;8.514;2022-08-06T09:28:42;74.77;;;7.13;;
5221;SDS011;2630;52.036;8.514;2022-08-06T09:33:40;74.10;;;6.77;;
5221;SDS011;2630;52.036;8.514;2022-08-06T09:36:28;80.47;;;8.30;;
5221;SDS011;2630;52.036;8.514;2022-08-06T09:39:09;74.30;;;6.93;;
5221;SDS011;2630;52.036;8.514;2022-08-06T09:41:39;78.67;;;8.07;;
5221;SDS011;2630;52.036;8.514;2022-08-06T09:44:10;72.87;;;6.10;;
5221;SDS011;2630;52.036;8.514;2022-08-06T09:49:02;72.73;;;7.00;;
5221;SDS011;2630;52.036;8.514;2022-08-06T09:51:28;75.77;;;7.70;;
5221;SDS011;2630;52.036;8.514;2022-08-06T09:53:56;72.90;;;7.17;;
5221;SDS011;2630;52.036;8.514;2022-08-06T09:56:24;74.27;;;7.53;;
5221;SDS011;2630;52.036;8.514;2022-08-06T09:58:50;73.40;;;6.90;;
5221;SDS011;2630;52.036;8.514;2022-08-06T10:01:25;74.50;;;7.10;;
5221;SDS011;2630;52.036;8.514;2022-08-06T10:03:53;72.90;;;7.07;;
5221;SDS011;2630;52.036;8.514;2022-08-06T10:06:20;74.17;;;6.97;;
5221;SDS011;2630;52.036;8.514;2022-08-06T10:08:49;73.77;;;7.50;;
5221;SDS011;2630;52.036;8.514;2022-08-06T10:11:35;74.37;;;7.70;;
5221;SDS011;2630;52.036;8.514;2022-08-06T10:14:02;73.60;;;6.60;;
5221;SDS011;2630;52.036;8.514;2022-08-06T10:16:28;73.63;;;6.83;;
5221;SDS011;2630;52.036;8.514;2022-08-06T10:18:55;75.37;;;6.70;;
5221;SDS011;2630;52.036;8.514;2022-08-06T10:21:28;75.17;;;7.63;;
5221;SDS011;2630;52.036;8.514;2022-08-06T10:24:01;73.40;;;7.10;;
5221;SDS011;2630;52.036;8.514;2022-08-06T10:26:32;74.83;;;7.00;;
5221;SDS011;2630;52.036;8.514;2022-08-06T10:29:05;73.47;;;6.23;;
5221;SDS011;2630;52.036;8.514;2022-08-06T10:31:33;75.63;;;6.40;;
5221;SDS011;2630;52.036;8.514;2022-08-06T10:34:12;75.63;;;6.60;;
5221;SDS011;2630;52.036;8.514;2022-08-06T10:36:45;75.30;;;7.20;;
5221;SDS011;2630;52.036;8.514;2022-08-06T10:39:20;77.17;;;7.70;;
5221;SDS011;2630;52.036;8.514;2022-08-06T10:41:51;74.03;;;7.03;;
5221;SDS011;2630;52.036;8.514;2022-08-06T10:44:19;73.80;;;6.60;;
5221;SDS011;2630;52.036;8.514;2022-08-06T10:46:52;73.47;;;6.30;;
5221;SDS011;2630;52.036;8.514;2022-08-06T10:49:19;77.77;;;7.97;;
5221;SDS011;2630;52.036;8.514;2022-08-06T10:51:46;74.53;;;6.57;;
5221;SDS011;2630;52.036;8.514;2022-08-06T10:54:12;74.43;;;7.03;;
5221;SDS011;2630;52.036;8.514;2022-08-06T10:56:39;76.90;;;6.77;;
5221;SDS011;2630;52.036;8.514;2022-08-06T10:59:05;73.00;;;6.00;;
5221;SDS011;2630;52.036;8.514;2022-08-06T11:15:17;74.90;;;6.37;;
5221;SDS011;2630;52.036;8.514;2022-08-06T11:17:48;75.10;;;7.07;;
5221;SDS011;2630;52.036;8.514;2022-08-06T11:20:34;88.93;;;7.70;;
5221;SDS011;2630;52.036;8.514;2022-08-06T11:33:21;77.10;;;7.30;;
5221;SDS011;2630;52.036;8.514;2022-08-06T11:36:03;75.40;;;6.93;;
5221;SDS011;2630;52.036;8.514;2022-08-06T11:41:08;78.80;;;7.07;;
5221;SDS011;2630;52.036;8.514;2022-08-06T11:43:54;73.03;;;6.17;;
5221;SDS011;2630;52.036;8.514;2022-08-06T11:51:45;73.37;;;6.53;;
5221;SDS011;2630;52.036;8.514;2022-08-06T12:02:05;73.90;;;6.43;;
5221;SDS011;2630;52.036;8.514;2022-08-06T12:07:21;72.60;;;5.50;;
5221;SDS011;2630;52.036;8.514;2022-08-06T12:14:58;73.27;;;6.43;;
5221;SDS011;2630;52.036;8.514;2022-08-06T12:17:26;72.87;;;6.07;;
5221;SDS011;2630;52.036;8.514;2022-08-06T12:19:55;75.70;;;6.03;;
5221;SDS011;2630;52.036;8.514;2022-08-06T12:22:27;73.50;;;6.30;;
5221;SDS011;2630;52.036;8.514;2022-08-06T12:24:54;73.90;;;6.73;;
5221;SDS011;2630;52.036;8.514;2022-08-06T12:27:22;76.37;;;6.90;;
5221;SDS011;2630;52.036;8.514;2022-08-06T12:29:53;73.37;;;6.10;;
5221;SDS011;2630;52.036;8.514;2022-08-06T12:34:52;73.77;;;7.47;;
5221;SDS011;2630;52.036;8.514;2022-08-06T12:37:19;74.20;;;6.43;;
5221;SDS011;2630;52.036;8.514;2022-08-06T12:39:45;75.17;;;6.90;;
5221;SDS011;2630;52.036;8.514;2022-08-06T12:42:31;73.03;;;6.20;;
5221;SDS011;2630;52.036;8.514;2022-08-06T12:44:57;73.07;;;6.23;;
5221;SDS011;2630;52.036;8.514;2022-08-06T12:47:23;72.67;;;6.40;;
5221;SDS011;2630;52.036;8.514;2022-08-06T12:49:51;73.20;;;6.83;;
5221;SDS011;2630;52.036;8.514;2022-08-06T12:52:18;73.30;;;6.70;;
5221;SDS011;2630;52.036;8.514;2022-08-06T12:54:46;74.80;;;6.50;;
5221;SDS011;2630;52.036;8.514;2022-08-06T12:57:21;73.87;;;6.50;;
5221;SDS011;2630;52.036;8.514;2022-08-06T12:59:48;76.77;;;6.33;;
5221;SDS011;2630;52.036;8.514;2022-08-06T13:02:16;73.70;;;6.53;;
5221;SDS011;2630;52.036;8.514;2022-08-06T13:04:45;73.17;;;6.40;;
5221;SDS011;2630;52.036;8.514;2022-08-06T13:07:14;76.17;;;7.00;;
5221;SDS011;2630;52.036;8.514;2022-08-06T13:09:40;73.20;;;6.67;;
5221;SDS011;2630;52.036;8.514;2022-08-06T13:12:18;72.97;;;6.63;;
5221;SDS011;2630;52.036;8.514;2022-08-06T13:14:55;72.80;;;6.20;;
5221;SDS011;2630;52.036;8.514;2022-08-06T13:17:23;82.20;;;7.63;;
5221;SDS011;2630;52.036;8.514;2022-08-06T13:19:52;75.47;;;6.63;;
5221;SDS011;2630;52.036;8.514;2022-08-06T13:22:20;74.30;;;6.47;;
5221;SDS011;2630;52.036;8.514;2022-08-06T13:24:46;72.87;;;5.60;;
5221;SDS011;2630;52.036;8.514;2022-08-06T13:27:14;75.30;;;7.40;;
5221;SDS011;2630;52.036;8.514;2022-08-06T13:29:58;73.40;;;6.83;;
5221;SDS011;2630;52.036;8.514;2022-08-06T13:32:25;73.17;;;5.93;;
5221;SDS011;2630;52.036;8.514;2022-08-06T13:34:53;73.90;;;6.27;;
5221;SDS011;2630;52.036;8.514;2022-08-06T13:40:11;74.43;;;6.50;;
5221;SDS011;2630;52.036;8.514;2022-08-06T13:45:33;85.03;;;7.30;;
5221;SDS011;2630;52.036;8.514;2022-08-06T13:48:06;73.00;;;6.20;;
5221;SDS011;2630;52.036;8.514;2022-08-06T13:50:36;74.10;;;6.87;;
5221;SDS011;2630;52.036;8.514;2022-08-06T13:53:04;73.73;;;6.97;;
5221;SDS011;2630;52.036;8.514;2022-08-06T13:55:30;75.03;;;6.93;;
5221;SDS011;2630;52.036;8.514;2022-08-06T13:57:56;72.90;;;6.63;;
5221;SDS011;2630;52.036;8.514;2022-08-06T14:00:22;73.50;;;6.53;;
5221;SDS011;2630;52.036;8.514;2022-08-06T14:02:49;73.40;;;6.77;;
5221;SDS011;2630;52.036;8.514;2022-08-06T14:05:16;77.23;;;7.47;;
5221;SDS011;2630;52.036;8.514;2022-08-06T14:07:42;73.60;;;7.17;;
5221;SDS011;2630;52.036;8.514;2022-08-06T14:10:07;73.30;;;6.30;;
5221;SDS011;2630;52.036;8.514;2022-08-06T14:12:33;73.57;;;7.00;;
5221;SDS011;2630;52.036;8.514;2022-08-06T14:14:59;72.50;;;6.13;;
5221;SDS011;2630;52.036;8.514;2022-08-06T14:17:25;73.40;;;6.80;;
5221;SDS011;2630;52.036;8.514;2022-08-06T14:19:51;73.60;;;6.63;;
5221;SDS011;2630;52.036;8.514;2022-08-06T14:22:17;74.77;;;7.83;;
5221;SDS011;2630;52.036;8.514;2022-08-06T14:24:43;73.47;;;7.67;;
5221;SDS011;2630;52.036;8.514;2022-08-06T14:27:09;72.97;;;6.80;;
5221;SDS011;2630;52.036;8.514;2022-08-06T14:29:36;74.37;;;6.77;;
5221;SDS011;2630;52.036;8.514;2022-08-06T14:32:02;73.67;;;6.57;;
5221;SDS011;2630;52.036;8.514;2022-08-06T14:34:29;73.23;;;6.33;;
5221;SDS011;2630;52.036;8.514;2022-08-06T14:36:55;75.50;;;6.53;;
5221;SDS011;2630;52.036;8.514;2022-08-06T14:39:21;76.03;;;6.67;;
5221;SDS011;2630;52.036;8.514;2022-08-06T14:41:47;75.57;;;6.83;;
5221;SDS011;2630;52.036;8.514;2022-08-06T14:44:31;75.60;;;6.93;;
5221;SDS011;2630;52.036;8.514;2022-08-06T14:47:15;79.27;;;7.27;;
5221;SDS011;2630;52.036;8.514;2022-08-06T14:49:41;75.80;;;7.10;;
5221;SDS011;2630;52.036;8.514;2022-08-06T14:52:07;73.40;;;6.97;;
5221;SDS011;2630;52.036;8.514;2022-08-06T14:54:33;73.97;;;6.50;;
5221;SDS011;2630;52.036;8.514;2022-08-06T14:57:01;73.23;;;6.93;;
5221;SDS011;2630;52.036;8.514;2022-08-06T14:59:31;74.47;;;6.90;;
5221;SDS011;2630;52.036;8.514;2022-08-06T15:01:57;73.37;;;6.40;;
5221;SDS011;2630;52.036;8.514;2022-08-06T15:04:22;84.33;;;7.03;;
5221;SDS011;2630;52.036;8.514;2022-08-06T15:06:48;80.93;;;7.70;;
5221;SDS011;2630;52.036;8.514;2022-08-06T15:09:14;73.30;;;6.77;;
5221;SDS011;2630;52.036;8.514;2022-08-06T15:11:40;74.90;;;7.00;;
5221;SDS011;2630;52.036;8.514;2022-08-06T15:14:06;74.20;;;6.60;;
5221;SDS011;2630;52.036;8.514;2022-08-06T15:16:32;73.47;;;6.57;;
5221;SDS011;2630;52.036;8.514;2022-08-06T15:18:58;72.70;;;6.07;;
5221;SDS011;2630;52.036;8.514;2022-08-06T15:21:24;74.37;;;6.90;;
5221;SDS011;2630;52.036;8.514;2022-08-06T15:23:50;74.07;;;6.27;;
5221;SDS011;2630;52.036;8.514;2022-08-06T15:26:18;74.77;;;6.53;;
5221;SDS011;2630;52.036;8.514;2022-08-06T15:28:44;84.53;;;7.90;;
5221;SDS011;2630;52.036;8.514;2022-08-06T15:31:10;77.40;;;6.90;;
5221;SDS011;2630;52.036;8.514;2022-08-06T15:33:36;73.03;;;6.33;;
5221;SDS011;2630;52.036;8.514;2022-08-06T15:36:02;73.63;;;6.00;;
5221;SDS011;2630;52.036;8.514;2022-08-06T15:38:28;73.97;;;6.57;;
5221;SDS011;2630;52.036;8.514;2022-08-06T15:40:54;73.10;;;6.30;;
5221;SDS011;2630;52.036;8.514;2022-08-06T15:43:20;72.63;;;6.53;;
5221;SDS011;2630;52.036;8.514;2022-08-06T15:45:46;73.77;;;5.93;;
5221;SDS011;2630;52.036;8.514;2022-08-06T15:48:12;74.47;;;5.93;;
5221;SDS011;2630;52.036;8.514;2022-08-06T15:50:41;72.67;;;6.43;;
5221;SDS011;2630;52.036;8.514;2022-08-06T15:53:08;73.00;;;6.17;;
5221;SDS011;2630;52.036;8.514;2022-08-06T15:55:35;72.70;;;5.93;;
5221;SDS011;2630;52.036;8.514;2022-08-06T15:58:00;72.77;;;6.13;;
5221;SDS011;2630;52.036;8.514;2022-08-06T16:00:27;73.40;;;6.30;;
5221;SDS011;2630;52.036;8.514;2022-08-06T16:02:52;75.57;;;5.97;;
5221;SDS011;2630;52.036;8.514;2022-08-06T16:05:18;72.63;;;5.73;;
5221;SDS011;2630;52.036;8.514;2022-08-06T16:07:45;73.40;;;6.20;;
5221;SDS011;2630;52.036;8.514;2022-08-06T16:10:11;78.60;;;6.60;;
5221;SDS011;2630;52.036;8.514;2022-08-06T16:12:37;73.70;;;6.40;;
5221;SDS011;2630;52.036;8.514;2022-08-06T16:15:06;73.40;;;5.53;;
5221;SDS011;2630;52.036;8.514;2022-08-06T16:17:33;73.17;;;5.53;;
5221;SDS011;2630;52.036;8.514;2022-08-06T16:19:59;75.17;;;8.37;;
5221;SDS011;2630;52.036;8.514;2022-08-06T16:22:25;73.37;;;6.27;;
5221;SDS011;2630;52.036;8.514;2022-08-06T16:24:51;73.97;;;5.97;;
5221;SDS011;2630;52.036;8.514;2022-08-06T16:27:17;72.73;;;6.13;;
5221;SDS011;2630;52.036;8.514;2022-08-06T16:29:43;72.37;;;6.10;;
5221;SDS011;2630;52.036;8.514;2022-08-06T16:32:10;73.10;;;6.23;;
5221;SDS011;2630;52.036;8.514;2022-08-06T16:34:37;78.13;;;6.87;;
5221;SDS011;2630;52.036;8.514;2022-08-06T16:37:03;73.57;;;5.87;;
5221;SDS011;2630;52.036;8.514;2022-08-06T16:39:29;72.23;;;6.03;;
5221;SDS011;2630;52.036;8.514;2022-08-06T16:41:55;75.20;;;6.30;;
5221;SDS011;2630;52.036;8.514;2022-08-06T16:44:21;73.27;;;5.90;;
5221;SDS011;2630;52.036;8.514;2022-08-06T16:46:47;73.40;;;6.30;;
5221;SDS011;2630;52.036;8.514;2022-08-06T16:49:12;73.37;;;5.87;;